Marshall, MN

12:33 AM CST on February 08, 2016 (GMT -0600)
Marshall Municipal-Ryan

Weather History for KMML - October, 2013

Change the Weather History Date:

Sunday, October 27, 2013

  Actual Average Record
Temperature  
Mean Temperature 44 °F -  
Max Temperature 57 °F 58 °F 81 °F (1983)
Min Temperature 30 °F 35 °F 12 °F (1976)
Degree Days  
Heating Degree Days 22    
Moisture  
Dew Point 28 °F    
Average Humidity 55    
Maximum Humidity 75    
Minimum Humidity 36    
Precipitation  
Precipitation 0.00 in - - ()
Sea Level Pressure  
Sea Level Pressure 29.90 in    
Wind  
Wind Speed 12 mph (WNW)    
Max Wind Speed 21 mph    
Max Gust Speed 28 mph    
Visibility 10 miles    
Events      
Averages and records for this station are not official NWS values.
T = Trace of Precipitation, MM = Missing Value Source: NWS Daily Summary

Daily Weather History Graph

Daily Weather History Graph

Search for Another Location

Airport or City:

Trip Planner

Search our weather history database for the weather conditions in past years. The results will help you decide how hot, cold, wet, or windy it might be!

Date:

Astronomy

Oct. 27, 2013 Rise Set
Actual Time 7:54 AM CDT 6:19 PM CDT
Civil Twilight 7:24 AM CDT 6:49 PM CDT
Nautical Twilight 6:50 AM CDT 7:23 PM CDT
Astronomical Twilight 6:16 AM CDT 7:56 PM CDT
Moon 12:37 AM CDT (10/27) 2:43 PM CDT (10/27)
Length of Visible Light 11h 24m
Length of Day
10h 24m
Last Quarter, 43% of the Moon is Illuminated
Oct 27
Last Quarter
Nov 3
New
Nov 9
First Quarter
Nov 17
Full
Nov 25
Last Quarter

Hourly Weather History & Observations

Time (CDT) Temp. Windchill Dew Point Humidity Pressure Visibility Wind Dir Wind Speed Gust Speed Precip Events Conditions
12:15 AM 30.2 °F 21.9 °F 23.0 °F 75% 30.02 in 10.0 mi SW 9.2 mph - N/A   Clear
12:35 AM 32.0 °F 24.2 °F 23.0 °F 69% 30.01 in 10.0 mi SW 9.2 mph - N/A   Clear
12:55 AM 30.2 °F 21.3 °F 21.2 °F 69% 30.00 in 10.0 mi SSW 10.4 mph - N/A   Clear
1:15 AM 30.2 °F 20.8 °F 21.2 °F 69% 29.99 in 10.0 mi SSW 11.5 mph - N/A   Clear
1:35 AM 30.2 °F 21.3 °F 23.0 °F 75% 29.98 in 10.0 mi SSW 10.4 mph - N/A   Clear
1:55 AM 30.2 °F 21.9 °F 23.0 °F 75% 29.97 in 10.0 mi SW 9.2 mph - N/A   Clear
2:15 AM 30.2 °F 21.9 °F 23.0 °F 75% 29.96 in 10.0 mi SSW 9.2 mph - N/A   Clear
2:35 AM 32.0 °F 24.2 °F 24.8 °F 75% 29.95 in 10.0 mi South 9.2 mph - N/A   Clear
2:55 AM 30.2 °F 23.4 °F 23.0 °F 75% 29.94 in 10.0 mi South 6.9 mph - N/A   Clear
3:15 AM 33.8 °F 27.0 °F 24.8 °F 70% 29.93 in 10.0 mi SSW 8.1 mph - N/A   Clear
3:35 AM 33.8 °F 25.3 °F 24.8 °F 70% 29.92 in 10.0 mi SSW 11.5 mph 17.3 mph N/A   Clear
3:55 AM 33.8 °F 28.6 °F 24.8 °F 70% 29.91 in 10.0 mi SSW 5.8 mph - N/A   Clear
4:15 AM 35.6 °F 30.7 °F 26.6 °F 70% 29.89 in 10.0 mi SSW 5.8 mph - N/A   Clear
4:35 AM 37.4 °F 31.4 °F 26.6 °F 65% 29.88 in 10.0 mi SSW 8.1 mph - N/A   Clear
4:55 AM 39.2 °F 31.6 °F 26.6 °F 61% 29.87 in 10.0 mi SW 12.7 mph 20.7 mph N/A   Clear
5:15 AM 39.2 °F 29.8 °F 24.8 °F 56% 29.86 in 10.0 mi SW 18.4 mph 26.5 mph N/A   Clear
5:35 AM 41.0 °F 32.5 °F 26.6 °F 57% 29.85 in 10.0 mi SW 17.3 mph 24.2 mph N/A   Clear
5:55 AM 42.8 °F 34.0 °F 26.6 °F 53% 29.84 in 10.0 mi SW 20.7 mph 26.5 mph N/A   Clear
6:15 AM 42.8 °F 34.0 °F 24.8 °F 49% 29.82 in 10.0 mi SW 20.7 mph 27.6 mph N/A   Clear
6:35 AM 42.8 °F 34.3 °F 24.8 °F 49% 29.82 in 10.0 mi SW 19.6 mph 25.3 mph N/A   Clear
6:55 AM 41.0 °F 32.8 °F 24.8 °F 53% 29.81 in 10.0 mi SW 16.1 mph 24.2 mph N/A   Clear
7:15 AM 39.2 °F 29.8 °F 24.8 °F 56% 29.80 in 10.0 mi SW 18.4 mph - N/A   Clear
7:35 AM 37.4 °F 27.8 °F 24.8 °F 60% 29.80 in 10.0 mi SW 17.3 mph 25.3 mph N/A   Clear
7:55 AM 39.2 °F 31.2 °F 24.8 °F 56% 29.79 in 10.0 mi SSW 13.8 mph - N/A   Clear
8:15 AM 37.4 °F 28.2 °F 24.8 °F 60% 29.79 in 10.0 mi SSW 16.1 mph - N/A   Clear
8:35 AM 39.2 °F 30.8 °F 24.8 °F 56% 29.79 in 10.0 mi SW 15.0 mph - N/A   Clear
8:55 AM 42.8 °F 35.1 °F 24.8 °F 49% 29.79 in 10.0 mi SW 16.1 mph 19.6 mph N/A   Clear
9:15 AM 44.6 °F 37.2 °F 26.6 °F 49% 29.79 in 10.0 mi SW 17.3 mph - N/A   Clear
9:35 AM 46.4 °F 41.5 °F 26.6 °F 46% 29.79 in 10.0 mi SW 10.4 mph - N/A   Clear
9:55 AM 48.2 °F - 28.4 °F 46% 29.79 in 10.0 mi SW 12.7 mph - N/A   Clear
10:15 AM 48.2 °F - 28.4 °F 46% 29.79 in 10.0 mi WSW 17.3 mph 24.2 mph N/A   Clear
10:35 AM 51.8 °F - 28.4 °F 41% 29.78 in 10.0 mi WSW 19.6 mph - N/A   Clear
10:55 AM 51.8 °F - 28.4 °F 41% 29.79 in 10.0 mi WSW 16.1 mph 20.7 mph N/A   Clear
11:15 AM 53.6 °F - 30.2 °F 41% 29.81 in 10.0 mi WNW 13.8 mph 20.7 mph N/A   Clear
11:35 AM 53.6 °F - 30.2 °F 41% 29.81 in 10.0 mi WNW 10.4 mph - N/A   Clear
11:55 AM 55.4 °F - 30.2 °F 38% 29.81 in 10.0 mi NW 9.2 mph - N/A   Clear
12:15 PM 55.4 °F - 30.2 °F 38% 29.81 in 10.0 mi NNW 11.5 mph - N/A   Clear
12:35 PM 55.4 °F - 30.2 °F 38% 29.82 in 10.0 mi NNW 9.2 mph - N/A   Clear
12:55 PM 55.4 °F - 30.2 °F 38% 29.81 in 10.0 mi North 9.2 mph - N/A   Clear
1:15 PM 57.2 °F - 30.2 °F 36% 29.81 in 10.0 mi North 10.4 mph - N/A   Clear
1:35 PM 57.2 °F - 30.2 °F 36% 29.81 in 10.0 mi North 11.5 mph - N/A   Clear
1:55 PM 57.2 °F - 30.2 °F 36% 29.80 in 10.0 mi North 11.5 mph 16.1 mph N/A   Clear
2:15 PM 57.2 °F - 32.0 °F 38% 29.81 in 10.0 mi North 12.7 mph 17.3 mph N/A   Clear
2:35 PM 57.2 °F - 33.8 °F 41% 29.81 in 10.0 mi North 13.8 mph - N/A   Clear
2:55 PM 57.2 °F - 33.8 °F 41% 29.82 in 10.0 mi North 16.1 mph - N/A   Clear
3:15 PM 57.2 °F - 33.8 °F 41% 29.83 in 10.0 mi North 15.0 mph 20.7 mph N/A   Clear
3:35 PM 55.4 °F - 33.8 °F 44% 29.84 in 10.0 mi North 18.4 mph - N/A   Clear
3:55 PM 55.4 °F - 33.8 °F 44% 29.85 in 10.0 mi North 15.0 mph 21.9 mph N/A   Clear
4:15 PM 55.4 °F - 33.8 °F 44% 29.86 in 10.0 mi North 15.0 mph - N/A   Clear
4:35 PM 55.4 °F - 32.0 °F 41% 29.87 in 10.0 mi North 15.0 mph 23.0 mph N/A   Clear
4:55 PM 55.4 °F - 33.8 °F 44% 29.88 in 10.0 mi North 17.3 mph 20.7 mph N/A   Clear
5:15 PM 53.6 °F - 33.8 °F 47% 29.89 in 10.0 mi North 16.1 mph 21.9 mph N/A   Clear
5:35 PM 53.6 °F - 32.0 °F 44% 29.90 in 10.0 mi North 15.0 mph - N/A   Clear
5:55 PM 51.8 °F - 33.8 °F 50% 29.91 in 10.0 mi North 11.5 mph - N/A   Clear
6:15 PM 50.0 °F - 32.0 °F 50% 29.92 in 10.0 mi North 12.7 mph - N/A   Clear
6:35 PM 48.2 °F - 30.2 °F 50% 29.94 in 10.0 mi North 12.7 mph - N/A   Clear
6:55 PM 46.4 °F 41.1 °F 30.2 °F 53% 29.95 in 10.0 mi NNW 11.5 mph - N/A   Clear
7:15 PM 44.6 °F 38.1 °F 30.2 °F 57% 29.96 in 10.0 mi NNW 13.8 mph - N/A   Clear
7:35 PM 44.6 °F 38.4 °F 30.2 °F 57% 29.98 in 10.0 mi NNW 12.7 mph - N/A   Clear
7:55 PM 42.8 °F 36.6 °F 30.2 °F 61% 30.00 in 10.0 mi North 11.5 mph - N/A   Clear
8:15 PM 42.8 °F 36.6 °F 28.4 °F 57% 30.01 in 10.0 mi NNW 11.5 mph - N/A   Clear
8:35 PM 41.0 °F 34.3 °F 28.4 °F 61% 30.02 in 10.0 mi NNW 11.5 mph - N/A   Clear
8:55 PM 39.2 °F 32.5 °F 28.4 °F 65% 30.03 in 10.0 mi North 10.4 mph - N/A   Clear
9:15 PM 39.2 °F 32.5 °F 28.4 °F 65% 30.04 in 10.0 mi North 10.4 mph - N/A   Clear
9:35 PM 39.2 °F 32.0 °F 28.4 °F 65% 30.06 in 10.0 mi North 11.5 mph - N/A   Clear
9:55 PM 39.2 °F 32.5 °F 28.4 °F 65% 30.07 in 10.0 mi North 10.4 mph - N/A   Clear
10:15 PM 39.2 °F 32.0 °F 28.4 °F 65% 30.08 in 10.0 mi NNE 11.5 mph - N/A   Clear
10:35 PM 37.4 °F 30.3 °F 28.4 °F 70% 30.09 in 10.0 mi NNE 10.4 mph - N/A   Clear
10:55 PM 37.4 °F 30.3 °F 26.6 °F 65% 30.11 in 10.0 mi NNE 10.4 mph - N/A   Clear
11:15 PM 37.4 °F 30.8 °F 28.4 °F 70% 30.11 in 10.0 mi NNE 9.2 mph - N/A   Clear
11:35 PM 35.6 °F 28.6 °F 26.6 °F 70% 30.12 in 10.0 mi North 9.2 mph - N/A   Clear
11:55 PM 33.8 °F 27.0 °F 26.6 °F 75% 30.13 in 10.0 mi North 8.1 mph - N/A   Clear